Barton-le-Clay, United Kingdom
Current Conditions -  °F | °C
As of 11:50 PM on Saturday 22 Nov 2014 (Local Time) from EGGW Reporting Station
Overcast Overcast  
Wind Chill: 52°   Ceiling: 2200
Heat Index: 52°   Visibility: 6mi
Dew Point: 52°   Wind: 3mph
Humidity: 100%   Direction: 270°W
Pressure: 29.97"   Gusts: NA
Location:  51.97°N, 0.43°W
Report Text: EGGW 222350Z 27003KT 9999 OVC022 11/11 Q1015
Loading
Personal Weather Stations






























Interactive Weather Map New forecast layout! Learn more

10-Day Weather Forecast

Advertisements
Track Severe Weather on mobile